Time;durP1;ratioP1;P1;durP2;ratioP2;P2;SDS_P1;SDS_P2;PMS_P1;PMS_P2;Temp;Humidity;BMP_temperature;BMP_pressure;BME280_temperature;BME280_humidity;BME280_pressure;Samples;Min_cycle;Max_cycle;Signal;HPM_P1;HPM_P2
2024/01/15 00:02:08;;;;;;;;;;;;;;;21.34;19.66;97277.00;5020561;28;725;-73
2024/01/15 00:04:38;;;;;;;;;;;;;;;21.21;19.83;97279.88;4996213;28;907;-72
2024/01/15 00:07:03;;;;;;;;;;;;;;;21.24;19.84;97278.16;4964345;28;817;-72
2024/01/15 00:09:29;;;;;;;;;;;;;;;21.15;20.04;97270.41;4980245;28;1344;-72
2024/01/15 00:11:55;;;;;;;;;;;;;;;21.51;19.73;97271.97;4980343;28;814;-72
2024/01/15 00:14:20;;;;;;;;;;;;;;;21.65;19.38;97271.41;4980436;28;899;-72
2024/01/15 00:16:46;;;;;;;;;;;;;;;21.39;19.78;97267.13;4996447;28;1977;-73
2024/01/15 00:19:12;;;;;;;;;;;;;;;21.39;19.66;97267.94;4980231;28;762;-72
2024/01/15 00:21:37;;;;;;;;;;;;;;;21.42;19.58;97266.22;4996256;28;1251;-72
2024/01/15 00:24:03;;;;;;;;;;;;;;;21.28;19.81;97262.63;4938162;29;947;-72
2024/01/15 00:26:29;;;;;;;;;;;;;;;21.26;20.02;97264.38;4937961;29;830;-72
2024/01/15 00:28:54;;;;;;;;;;;;;;;20.98;20.29;97263.34;4922613;29;944;-72
2024/01/15 00:31:20;;;;;;;;;;;;;;;21.30;19.78;97265.84;4937876;29;833;-73
2024/01/15 00:33:46;;;;;;;;;;;;;;;21.16;20.07;97266.34;4937846;29;851;-72
2024/01/15 00:36:11;;;;;;;;;;;;;;;21.39;19.75;97272.81;4967315;28;1910;-72
2024/01/15 00:38:37;;;;;;;;;;;;;;;21.51;19.57;97269.13;4960563;28;978;-72
2024/01/15 00:41:03;;;;;;;;;;;;;;;21.28;20.16;97273.97;4960354;28;1109;-73
2024/01/15 00:43:28;;;;;;;;;;;;;;;21.36;19.99;97276.56;4960443;28;1117;-72
2024/01/15 00:45:54;;;;;;;;;;;;;;;21.14;20.13;97280.16;4976079;28;762;-72
2024/01/15 00:48:19;;;;;;;;;;;;;;;21.33;19.72;97276.22;4976407;28;764;-72
2024/01/15 00:50:45;;;;;;;;;;;;;;;21.23;20.13;97283.03;4943885;28;1360;-72
2024/01/15 00:53:11;;;;;;;;;;;;;;;21.22;19.81;97275.81;4959983;28;1229;-72
2024/01/15 00:55:37;;;;;;;;;;;;;;;21.20;20.15;97278.31;5020658;28;795;-72
2024/01/15 00:58:03;;;;;;;;;;;;;;;21.23;20.15;97266.06;5019452;28;1906;-73
2024/01/15 01:00:29;;;;;;;;;;;;;;;20.84;20.73;97267.47;5003087;28;826;-72
2024/01/15 01:02:54;;;;;;;;;;;;;;;21.18;20.16;97261.00;5036007;28;787;-73
2024/01/15 01:05:20;;;;;;;;;;;;;;;21.23;20.03;97260.41;5002951;28;1341;-72
2024/01/15 01:07:45;;;;;;;;;;;;;;;21.06;20.14;97268.28;5019341;28;732;-73
2024/01/15 01:10:11;;;;;;;;;;;;;;;21.29;19.92;97264.22;5019119;28;790;-72
2024/01/15 01:12:36;;;;;;;;;;;;;;;21.41;20.10;97259.78;5019155;28;826;-72
2024/01/15 01:15:02;;;;;;;;;;;;;;;21.33;19.80;97259.25;5019188;28;1183;-72
2024/01/15 01:17:28;;;;;;;;;;;;;;;21.27;19.84;97255.41;4978530;28;1910;-73
2024/01/15 01:19:53;;;;;;;;;;;;;;;21.02;20.37;97256.31;4994846;28;951;-73
2024/01/15 01:22:19;;;;;;;;;;;;;;;21.24;20.03;97259.19;5014643;28;915;-72
2024/01/15 01:24:45;;;;;;;;;;;;;;;21.31;19.95;97258.16;5014691;28;1000;-73
2024/01/15 01:27:10;;;;;;;;;;;;;;;21.29;19.82;97257.78;5014424;28;894;-72
2024/01/15 01:29:36;;;;;;;;;;;;;;;21.15;19.96;97259.09;4998260;28;1655;-72
2024/01/15 01:32:01;;;;;;;;;;;;;;;21.55;19.62;97258.44;5014244;28;962;-72
2024/01/15 01:34:27;;;;;;;;;;;;;;;21.58;19.60;97257.53;5014407;28;944;-73
2024/01/15 01:36:53;;;;;;;;;;;;;;;21.45;19.68;97253.97;4998028;28;1975;-72
2024/01/15 01:39:18;;;;;;;;;;;;;;;20.97;20.23;97254.06;4997982;28;966;-72
2024/01/15 01:41:44;;;;;;;;;;;;;;;21.04;20.22;97258.69;4965480;28;905;-72
2024/01/15 01:44:09;;;;;;;;;;;;;;;21.09;20.12;97255.28;5014359;28;901;-72
2024/01/15 01:46:39;;;;;;;;;;;;;;;21.10;20.05;97250.41;5014357;28;818;-72
2024/01/15 01:49:06;;;;;;;;;;;;;;;21.18;20.24;97255.34;4981991;28;795;-72
2024/01/15 01:51:31;;;;;;;;;;;;;;;21.10;20.28;97254.03;4997870;28;854;-72
2024/01/15 01:53:57;;;;;;;;;;;;;;;21.40;20.12;97246.91;4981492;28;1140;-73
2024/01/15 01:56:23;;;;;;;;;;;;;;;21.32;19.98;97252.00;4997949;28;1910;-72
2024/01/15 01:58:48;;;;;;;;;;;;;;;21.38;19.93;97254.25;4984070;28;1228;-72
2024/01/15 02:01:14;;;;;;;;;;;;;;;21.25;19.75;97252.25;5018621;28;712;-73
2024/01/15 02:03:40;;;;;;;;;;;;;;;21.35;19.93;97255.16;5018248;28;727;-72
2024/01/15 02:06:05;;;;;;;;;;;;;;;21.12;20.35;97248.69;5018477;28;719;-72
2024/01/15 02:08:31;;;;;;;;;;;;;;;21.08;20.38;97248.03;5035819;28;846;-72
2024/01/15 02:10:56;;;;;;;;;;;;;;;20.83;20.56;97243.28;5001893;28;774;-72
2024/01/15 02:13:22;;;;;;;;;;;;;;;21.18;20.04;97241.19;5018032;28;783;-72
2024/01/15 02:15:48;;;;;;;;;;;;;;;21.13;20.14;97233.28;5001766;28;1983;-72
2024/01/15 02:18:13;;;;;;;;;;;;;;;21.22;20.27;97236.19;5018024;28;1200;-72
2024/01/15 02:20:39;;;;;;;;;;;;;;;21.27;19.96;97237.66;5001887;28;1229;-72
2024/01/15 02:23:14;;;;;;;;;;;;;;;21.21;20.17;97240.28;5001817;28;1510;-72
2024/01/15 02:25:40;;;;;;;;;;;;;;;21.24;19.95;97239.38;5018301;28;700;-72
2024/01/15 02:28:06;;;;;;;;;;;;;;;21.37;19.97;97233.66;5018089;28;756;-73
2024/01/15 02:30:32;;;;;;;;;;;;;;;21.25;20.02;97240.16;4974578;28;1130;-73
2024/01/15 02:32:58;;;;;;;;;;;;;;;20.85;20.47;97234.34;4974597;28;1333;-73
2024/01/15 02:35:23;;;;;;;;;;;;;;;21.01;20.53;97231.31;4974869;28;904;-73
2024/01/15 02:37:49;;;;;;;;;;;;;;;21.17;20.09;97228.31;4955170;29;1996;-73
2024/01/15 02:40:15;;;;;;;;;;;;;;;21.01;20.26;97228.50;4955397;29;1678;-72
2024/01/15 02:42:40;;;;;;;;;;;;;;;21.01;20.46;97231.31;4939046;29;1005;-72
2024/01/15 02:45:06;;;;;;;;;;;;;;;20.87;20.65;97223.34;4955133;29;892;-72
2024/01/15 02:47:31;;;;;;;;;;;;;;;21.05;20.30;97229.94;4923174;29;1004;-72
2024/01/15 02:49:57;;;;;;;;;;;;;;;21.28;19.92;97225.84;4955216;29;1234;-73
2024/01/15 02:52:23;;;;;;;;;;;;;;;21.30;20.06;97220.56;4923539;29;772;-72
2024/01/15 02:54:48;;;;;;;;;;;;;;;21.30;19.92;97226.22;4954891;29;948;-73
2024/01/15 02:57:14;;;;;;;;;;;;;;;21.10;20.24;97217.25;4955046;29;1975;-73
2024/01/15 02:59:39;;;;;;;;;;;;;;;20.95;20.58;97221.84;4938762;29;1222;-73
2024/01/15 03:02:05;;;;;;;;;;;;;;;21.39;19.88;97222.66;4938998;29;889;-72
2024/01/15 03:04:30;;;;;;;;;;;;;;;21.32;20.15;97220.88;4939272;29;907;-73
2024/01/15 03:06:56;;;;;;;;;;;;;;;21.20;20.11;97220.94;4942106;28;812;-72
2024/01/15 03:09:22;;;;;;;;;;;;;;;21.16;20.16;97220.28;4983338;28;1229;-72
2024/01/15 03:11:48;;;;;;;;;;;;;;;21.19;20.21;97220.16;4993587;28;905;-72
2024/01/15 03:14:14;;;;;;;;;;;;;;;20.80;20.49;97228.03;4977484;28;787;-72
2024/01/15 03:16:39;;;;;;;;;;;;;;;21.04;20.14;97224.75;4993535;28;1984;-72
2024/01/15 03:19:05;;;;;;;;;;;;;;;21.30;19.93;97220.56;4993767;28;755;-73
2024/01/15 03:21:31;;;;;;;;;;;;;;;21.16;20.14;97235.22;4977545;28;791;-72
2024/01/15 03:23:56;;;;;;;;;;;;;;;20.87;20.64;97229.00;4977804;28;1236;-73
2024/01/15 03:26:22;;;;;;;;;;;;;;;20.95;20.39;97227.50;4994789;28;830;-73
2024/01/15 03:28:47;;;;;;;;;;;;;;;21.18;20.24;97232.69;4964739;28;1290;-73
2024/01/15 03:31:13;;;;;;;;;;;;;;;21.29;20.19;97240.78;4996849;28;779;-72
2024/01/15 03:33:39;;;;;;;;;;;;;;;21.28;19.97;97223.03;4980860;28;1202;-72
2024/01/15 03:36:04;;;;;;;;;;;;;;;21.10;20.17;97239.88;4996789;28;1914;-73
2024/01/15 03:38:30;;;;;;;;;;;;;;;21.13;20.16;97238.16;4961275;28;1134;-73
2024/01/15 03:40:55;;;;;;;;;;;;;;;21.30;20.13;97236.75;4977314;28;862;-73
2024/01/15 03:43:21;;;;;;;;;;;;;;;21.10;20.07;97239.88;4961272;28;1274;-73
2024/01/15 03:45:47;;;;;;;;;;;;;;;21.13;20.20;97238.94;4980453;28;799;-73
2024/01/15 03:48:12;;;;;;;;;;;;;;;21.39;20.04;97233.19;4983727;28;1217;-73
2024/01/15 03:50:38;;;;;;;;;;;;;;;21.14;20.19;97228.41;4999790;28;889;-72
2024/01/15 03:53:03;;;;;;;;;;;;;;;21.30;20.10;97226.22;5000012;28;822;-73
2024/01/15 03:55:29;;;;;;;;;;;;;;;21.14;20.11;97231.25;4983679;28;1140;-72
2024/01/15 03:57:55;;;;;;;;;;;;;;;21.17;20.05;97236.78;4999289;28;1973;-72
2024/01/15 04:00:20;;;;;;;;;;;;;;;21.26;20.08;97224.75;5016051;28;807;-72
2024/01/15 04:02:46;;;;;;;;;;;;;;;21.13;20.05;97230.47;4967198;28;1019;-73
2024/01/15 04:05:12;;;;;;;;;;;;;;;21.19;20.12;97231.47;4999873;28;813;-72
2024/01/15 04:07:37;;;;;;;;;;;;;;;20.98;20.63;97223.75;4999784;28;1027;-73
2024/01/15 04:10:03;;;;;;;;;;;;;;;21.25;20.16;97232.47;5032028;28;814;-73
2024/01/15 04:12:28;;;;;;;;;;;;;;;21.18;20.09;97224.22;5020931;28;707;-72
2024/01/15 04:14:54;;;;;;;;;;;;;;;21.07;20.40;97229.47;5020199;28;1185;-73
2024/01/15 04:17:21;;;;;;;;;;;;;;;21.08;20.22;97236.72;5020094;28;1908;-72
2024/01/15 04:19:47;;;;;;;;;;;;;;;21.07;20.40;97240.78;5020093;28;1060;-73
2024/01/15 04:22:13;;;;;;;;;;;;;;;21.26;20.21;97242.50;5020313;28;855;-72
2024/01/15 04:24:39;;;;;;;;;;;;;;;21.23;20.31;97243.44;5020190;28;708;-73
2024/01/15 04:27:05;;;;;;;;;;;;;;;21.13;20.35;97249.47;5037587;28;680;-73
2024/01/15 04:29:31;;;;;;;;;;;;;;;21.22;20.01;97247.50;5020267;28;815;-72
2024/01/15 04:31:56;;;;;;;;;;;;;;;21.41;19.94;97251.28;5037910;28;751;-72
2024/01/15 04:34:22;;;;;;;;;;;;;;;21.04;20.36;97241.72;5019890;28;744;-72
2024/01/15 04:36:47;;;;;;;;;;;;;;;20.97;20.35;97253.28;5019871;28;1879;-72
2024/01/15 04:39:13;;;;;;;;;;;;;;;21.33;19.96;97247.94;5003720;28;744;-71
2024/01/15 04:41:38;;;;;;;;;;;;;;;21.08;20.32;97248.03;5019660;28;901;-72
2024/01/15 04:44:04;;;;;;;;;;;;;;;20.92;20.79;97256.69;4976294;28;851;-72
2024/01/15 04:46:30;;;;;;;;;;;;;;;21.23;20.32;97243.44;4959980;28;863;-72
2024/01/15 04:48:55;;;;;;;;;;;;;;;20.97;20.72;97258.94;4960414;28;788;-72
2024/01/15 04:51:21;;;;;;;;;;;;;;;20.92;20.47;97246.16;4960259;28;835;-72
2024/01/15 04:53:46;;;;;;;;;;;;;;;21.06;20.66;97256.19;4976153;28;791;-72
2024/01/15 04:56:12;;;;;;;;;;;;;;;21.47;20.02;97257.16;4943773;28;1902;-72
2024/01/15 04:58:38;;;;;;;;;;;;;;;20.99;20.56;97250.81;4975726;28;1134;-72
2024/01/15 05:01:03;;;;;;;;;;;;;;;21.19;20.33;97245.63;4976142;28;823;-72
2024/01/15 05:03:29;;;;;;;;;;;;;;;21.05;20.41;97243.31;4943469;28;945;-72
2024/01/15 05:05:55;;;;;;;;;;;;;;;21.22;20.25;97247.50;4955943;29;1112;-72
2024/01/15 05:08:21;;;;;;;;;;;;;;;21.18;20.15;97249.69;4940590;29;1020;-72
2024/01/15 05:10:47;;;;;;;;;;;;;;;21.18;20.26;97252.50;4940550;29;961;-72
2024/01/15 05:13:12;;;;;;;;;;;;;;;21.22;20.25;97253.16;4956240;29;970;-73
2024/01/15 05:15:38;;;;;;;;;;;;;;;21.12;20.60;97242.25;4999629;28;968;-73
2024/01/15 05:18:04;;;;;;;;;;;;;;;21.30;20.12;97245.25;5007656;28;1977;-72
2024/01/15 05:20:29;;;;;;;;;;;;;;;21.07;20.32;97247.25;4995173;28;1865;-72
2024/01/15 05:22:55;;;;;;;;;;;;;;;21.07;20.45;97240.78;4978210;28;1841;-72
2024/01/15 05:25:20;;;;;;;;;;;;;;;21.46;20.21;97241.41;4957562;28;1706;-72
2024/01/15 05:27:46;;;;;;;;;;;;;;;21.31;20.27;97244.00;4941440;28;2135;-72
2024/01/15 05:30:12;;;;;;;;;;;;;;;21.16;20.23;97242.91;4962932;28;1239;-71
2024/01/15 05:32:37;;;;;;;;;;;;;;;21.28;20.16;97242.84;4956436;29;1003;-72
2024/01/15 05:35:03;;;;;;;;;;;;;;;21.38;20.33;97237.28;4956251;29;975;-73
2024/01/15 05:37:29;;;;;;;;;;;;;;;21.28;20.30;97240.00;4958786;28;1915;-73
2024/01/15 05:39:54;;;;;;;;;;;;;;;21.37;20.27;97235.69;4943455;29;1176;-72
2024/01/15 05:42:20;;;;;;;;;;;;;;;21.24;20.50;97239.38;4955664;28;970;-73
2024/01/15 05:44:46;;;;;;;;;;;;;;;21.17;20.63;97233.97;4955806;29;1050;-73
2024/01/15 05:47:14;;;;;;;;;;;;;;;21.27;20.50;97232.78;4944354;28;1058;-72
2024/01/15 05:49:39;;;;;;;;;;;;;;;20.96;20.55;97234.75;4955215;28;1066;-73
2024/01/15 05:52:05;;;;;;;;;;;;;;;21.14;20.70;97229.25;4957097;28;1795;-72
2024/01/15 05:54:31;;;;;;;;;;;;;;;20.94;20.72;97234.44;5003785;28;1070;-72
2024/01/15 05:56:56;;;;;;;;;;;;;;;21.16;20.32;97234.44;4998764;28;1969;-73
2024/01/15 05:59:22;;;;;;;;;;;;;;;21.33;20.09;97230.94;5015544;28;1167;-74
2024/01/15 06:01:48;;;;;;;;;;;;;;;21.47;20.23;97226.00;5016787;28;983;-73
2024/01/15 06:04:13;;;;;;;;;;;;;;;21.57;20.06;97227.66;5025133;28;1830;-73
2024/01/15 06:06:39;;;;;;;;;;;;;;;21.39;20.16;97228.31;5018401;28;961;-73
2024/01/15 06:09:08;;;;;;;;;;;;;;;21.43;20.06;97233.84;4998837;28;1169;-73
2024/01/15 06:11:34;;;;;;;;;;;;;;;21.48;20.35;97236.88;5016434;28;939;-73
2024/01/15 06:14:02;;;;;;;;;;;;;;;21.50;19.98;97239.22;4998965;28;1089;-73
2024/01/15 06:16:28;;;;;;;;;;;;;;;21.09;20.48;97235.50;4998974;28;1954;-73
2024/01/15 06:18:54;;;;;;;;;;;;;;;21.05;20.46;97237.66;5016507;28;1130;-73
2024/01/15 06:21:19;;;;;;;;;;;;;;;21.14;20.45;97237.72;4998690;28;1026;-73
2024/01/15 06:23:45;;;;;;;;;;;;;;;21.05;20.62;97234.81;5013460;28;1020;-73
2024/01/15 06:26:13;;;;;;;;;;;;;;;21.50;19.90;97233.56;4981131;28;968;-73
2024/01/15 06:28:39;;;;;;;;;;;;;;;21.44;19.97;97229.75;4997322;28;1138;-73
2024/01/15 06:31:06;;;;;;;;;;;;;;;20.86;20.67;97230.25;5013813;28;1127;-72
2024/01/15 06:33:31;;;;;;;;;;;;;;;21.09;20.41;97227.00;4997114;28;998;-73
2024/01/15 06:35:57;;;;;;;;;;;;;;;21.31;20.13;97227.81;4997444;28;1902;-73
2024/01/15 06:38:23;;;;;;;;;;;;;;;21.27;20.24;97223.50;4981478;28;1147;-73
2024/01/15 06:40:48;;;;;;;;;;;;;;;21.24;20.40;97228.06;4997651;28;990;-73
2024/01/15 06:43:15;;;;;;;;;;;;;;;21.27;20.34;97220.66;4993925;28;1133;-73
2024/01/15 06:45:40;;;;;;;;;;;;;;;21.16;20.31;97225.94;4977828;28;954;-73
2024/01/15 06:48:07;;;;;;;;;;;;;;;21.23;20.32;97223.63;4961832;28;1007;-73
2024/01/15 06:50:33;;;;;;;;;;;;;;;21.24;20.44;97219.56;4961626;28;1090;-73
2024/01/15 06:52:58;;;;;;;;;;;;;;;21.16;20.59;97214.63;4994249;28;991;-73
2024/01/15 06:55:24;;;;;;;;;;;;;;;21.12;20.32;97209.09;4977550;28;1051;-73
2024/01/15 06:57:50;;;;;;;;;;;;;;;21.15;20.32;97208.19;4977256;28;1910;-73
2024/01/15 07:00:15;;;;;;;;;;;;;;;21.27;20.28;97210.13;4972018;28;2102;-73
2024/01/15 07:02:41;;;;;;;;;;;;;;;21.27;20.47;97217.84;4997205;28;1027;-73
2024/01/15 07:05:07;;;;;;;;;;;;;;;21.14;20.46;97217.91;4981722;28;1245;-72
2024/01/15 07:07:32;;;;;;;;;;;;;;;21.44;20.42;97218.44;4997378;28;1040;-74
2024/01/15 07:09:58;;;;;;;;;;;;;;;21.25;20.23;97223.97;4965207;28;1176;-73
2024/01/15 07:12:24;;;;;;;;;;;;;;;21.21;20.44;97217.66;4979841;28;1699;-73
2024/01/15 07:14:49;;;;;;;;;;;;;;;21.12;20.53;97211.91;5014698;28;1567;-73
2024/01/15 07:17:15;;;;;;;;;;;;;;;21.37;20.14;97213.06;5001751;28;1922;-73
2024/01/15 07:19:41;;;;;;;;;;;;;;;21.22;20.28;97213.56;5001664;28;916;-73
2024/01/15 07:22:06;;;;;;;;;;;;;;;21.14;20.51;97212.25;5019881;28;1800;-73
2024/01/15 07:24:34;;;;;;;;;;;;;;;21.20;20.43;97215.28;4996020;28;1475;-73
2024/01/15 07:26:59;;;;;;;;;;;;;;;21.23;20.36;97208.69;4990897;28;1621;-73
2024/01/15 07:29:25;;;;;;;;;;;;;;;21.21;20.64;97212.00;4995059;28;1982;-73
2024/01/15 07:31:51;;;;;;;;;;;;;;;21.30;20.27;97203.59;4997075;28;959;-73
2024/01/15 07:34:17;;;;;;;;;;;;;;;21.20;20.39;97204.75;4997034;28;991;-73
2024/01/15 07:36:44;;;;;;;;;;;;;;;21.29;20.33;97204.78;4964412;28;1915;-73
2024/01/15 07:39:10;;;;;;;;;;;;;;;21.36;20.27;97206.63;4997095;28;1061;-72
2024/01/15 07:41:35;;;;;;;;;;;;;;;21.12;20.57;97197.78;4997681;28;1964;-72
2024/01/15 07:44:02;;;;;;;;;;;;;;;21.25;20.51;97201.34;4988258;28;1965;-73
2024/01/15 07:46:28;;;;;;;;;;;;;;;21.01;21.04;97200.22;4945204;28;1203;-72
2024/01/15 07:48:57;;;;;;;;;;;;;;;21.23;20.67;97200.97;4977160;28;963;-72
2024/01/15 07:51:23;;;;;;;;;;;;;;;21.13;20.54;97204.22;4977002;28;1276;-73
2024/01/15 07:53:48;;;;;;;;;;;;;;;21.93;19.98;97197.91;5276302;22;3749;-73
2024/01/15 07:56:14;;;;;;;;;;;;;;;22.77;18.72;97204.09;5045880;28;1898;-73
2024/01/15 07:58:39;;;;;;;;;;;;;;;22.18;19.27;97209.03;5012217;28;1084;-73
2024/01/15 08:01:06;;;;;;;;;;;;;;;21.59;19.72;97205.31;5049136;28;1124;-73
2024/01/15 08:03:31;;;;;;;;;;;;;;;20.93;20.90;97196.84;5044068;28;1732;-73
2024/01/15 08:05:59;;;;;;;;;;;;;;;21.31;20.16;97204.38;5039005;28;939;-73
2024/01/15 08:08:25;;;;;;;;;;;;;;;21.24;20.28;97199.75;4996979;28;980;-73
2024/01/15 08:10:52;;;;;;;;;;;;;;;21.18;20.29;97200.78;4980937;28;1626;-73
2024/01/15 08:13:17;;;;;;;;;;;;;;;21.14;20.47;97200.13;4996775;28;934;-72
2024/01/15 08:15:43;;;;;;;;;;;;;;;21.25;20.44;97201.34;4997133;28;1056;-72
2024/01/15 08:18:09;;;;;;;;;;;;;;;21.56;19.92;97197.75;4996735;28;1972;-72
2024/01/15 08:20:34;;;;;;;;;;;;;;;21.48;20.04;97202.09;4996716;28;929;-72
2024/01/15 08:23:00;;;;;;;;;;;;;;;21.05;20.82;97181.09;4980569;28;1202;-72
2024/01/15 08:25:25;;;;;;;;;;;;;;;21.16;20.40;97187.13;4996867;28;1009;-72
2024/01/15 08:27:51;;;;;;;;;;;;;;;21.36;20.07;97194.50;4996754;28;1130;-73
2024/01/15 08:30:18;;;;;;;;;;;;;;;21.09;20.46;97184.56;4980340;28;1326;-72
2024/01/15 08:32:44;;;;;;;;;;;;;;;21.14;20.66;97195.28;4996444;28;1544;-72
2024/01/15 08:35:10;;;;;;;;;;;;;;;20.80;20.66;97188.44;4996359;28;1041;-72
2024/01/15 08:37:36;;;;;;;;;;;;;;;21.02;20.47;97190.47;4979996;28;1981;-72
2024/01/15 08:40:01;;;;;;;;;;;;;;;21.21;20.46;97189.34;5042686;28;951;-72
2024/01/15 08:42:27;;;;;;;;;;;;;;;21.51;19.88;97175.72;5022731;28;973;-73
2024/01/15 08:44:53;;;;;;;;;;;;;;;21.29;20.07;97190.66;5055541;28;1000;-73
2024/01/15 08:47:18;;;;;;;;;;;;;;;21.33;20.00;97180.00;5022232;28;1206;-73
2024/01/15 08:49:45;;;;;;;;;;;;;;;21.46;19.95;97182.00;5039014;28;1472;-72
2024/01/15 08:52:10;;;;;;;;;;;;;;;21.20;20.25;97176.47;5038901;28;984;-72
2024/01/15 08:54:36;;;;;;;;;;;;;;;21.12;20.50;97177.97;5055165;28;1085;-73
2024/01/15 08:57:02;;;;;;;;;;;;;;;21.11;20.32;97182.06;5038602;28;1906;-73
2024/01/15 08:59:28;;;;;;;;;;;;;;;21.46;19.96;97176.31;5019475;28;1912;-73
2024/01/15 09:01:53;;;;;;;;;;;;;;;21.78;19.51;97170.16;5014988;28;1660;-72
2024/01/15 09:04:19;;;;;;;;;;;;;;;21.33;19.88;97163.03;5002718;28;1881;-73
2024/01/15 09:06:46;;;;;;;;;;;;;;;20.84;20.57;97160.03;5015277;28;1928;-72
2024/01/15 09:09:12;;;;;;;;;;;;;;;21.24;20.36;97160.16;5018841;28;1001;-73
2024/01/15 09:11:38;;;;;;;;;;;;;;;21.31;20.06;97148.56;5018612;28;1022;-73
2024/01/15 09:14:03;;;;;;;;;;;;;;;21.30;20.04;97134.91;4995659;28;958;-72
2024/01/15 09:16:29;;;;;;;;;;;;;;;21.38;19.99;97141.06;4996063;28;1894;-72
2024/01/15 09:18:57;;;;;;;;;;;;;;;21.59;19.95;97129.66;4979338;28;950;-73
2024/01/15 09:21:24;;;;;;;;;;;;;;;21.91;19.60;97132.44;4960367;28;2301;-72
2024/01/15 09:23:50;;;;;;;;;;;;;;;21.26;20.20;97132.16;4962608;28;1859;-73
2024/01/15 09:26:16;;;;;;;;;;;;;;;20.59;20.87;97121.38;4959989;28;1074;-72
2024/01/15 09:28:41;;;;;;;;;;;;;;;20.72;20.85;97113.59;4937010;29;1010;-73
2024/01/15 09:31:07;;;;;;;;;;;;;;;21.22;20.07;97117.38;4952393;29;1002;-72
2024/01/15 09:33:33;;;;;;;;;;;;;;;21.24;19.91;97114.06;4956665;29;998;-72
2024/01/15 09:36:01;;;;;;;;;;;;;;;21.59;19.66;97107.00;4937168;29;999;-73
2024/01/15 09:38:27;;;;;;;;;;;;;;;21.13;20.16;97097.50;4937371;29;1907;-73
2024/01/15 09:40:52;;;;;;;;;;;;;;;21.39;19.98;97097.34;4937350;29;1180;-73
2024/01/15 09:43:18;;;;;;;;;;;;;;;21.23;20.10;97096.31;4937472;29;1087;-72
2024/01/15 09:45:44;;;;;;;;;;;;;;;21.07;20.46;97088.06;4952429;29;1024;-73
2024/01/15 09:48:09;;;;;;;;;;;;;;;21.27;20.07;97091.31;4940308;29;1014;-73
2024/01/15 09:50:35;;;;;;;;;;;;;;;21.37;19.90;97088.53;4956194;29;978;-72
2024/01/15 09:53:00;;;;;;;;;;;;;;;21.45;19.97;97089.81;4920323;29;2097;-72
2024/01/15 09:55:26;;;;;;;;;;;;;;;21.13;20.16;97089.03;4948328;29;2070;-73
2024/01/15 09:57:52;;;;;;;;;;;;;;;21.29;20.06;97085.97;4940040;29;1914;-73
2024/01/15 10:00:17;;;;;;;;;;;;;;;21.61;19.76;97080.31;4955893;29;1143;-73
2024/01/15 10:02:43;;;;;;;;;;;;;;;21.39;19.78;97075.50;4972888;28;1874;-72
2024/01/15 10:05:09;;;;;;;;;;;;;;;21.59;19.92;97077.94;4983185;28;1314;-73
2024/01/15 10:07:35;;;;;;;;;;;;;;;21.46;19.58;97074.44;4955798;29;990;-72
2024/01/15 10:10:00;;;;;;;;;;;;;;;20.79;20.48;97061.69;4901727;29;1267;-73
2024/01/15 10:12:29;;;;;;;;;;;;;;;20.74;20.84;97054.59;4961692;28;1452;-73
2024/01/15 10:14:58;;;;;;;;;;;;;;;21.22;20.26;97054.34;4904289;29;1655;-73
2024/01/15 10:17:27;;;;;;;;;;;;;;;21.15;20.34;97049.75;4900295;29;1903;-73
2024/01/15 10:19:53;;;;;;;;;;;;;;;21.23;20.00;97047.44;4898604;29;1072;-73
2024/01/15 10:22:19;;;;;;;;;;;;;;;20.98;20.35;97039.94;4882806;29;978;-73
2024/01/15 10:24:46;;;;;;;;;;;;;;;21.27;20.04;97040.38;4898593;29;1027;-74
2024/01/15 10:27:12;;;;;;;;;;;;;;;21.44;19.93;97023.16;4852483;29;1496;-73
2024/01/15 10:29:38;;;;;;;;;;;;;;;21.61;19.45;97026.53;4861282;29;1067;-74
2024/01/15 10:32:10;;;;;;;;;;;;;;;21.49;19.84;97019.72;4861169;29;1016;-73
2024/01/15 10:34:40;;;;;;;;;;;;;;;21.69;19.37;97017.25;4876711;29;1783;-73
2024/01/15 10:37:08;;;;;;;;;;;;;;;21.30;20.15;97011.19;4878535;29;1907;-74
2024/01/15 10:39:34;;;;;;;;;;;;;;;21.47;19.68;96997.56;4901891;29;1566;-73
2024/01/15 10:42:00;;;;;;;;;;;;;;;21.61;19.80;96993.34;4902086;29;1069;-73
2024/01/15 10:44:25;;;;;;;;;;;;;;;21.53;19.62;96989.22;4894513;29;986;-73
2024/01/15 10:46:51;;;;;;;;;;;;;;;21.58;19.52;96980.91;4941066;29;1057;-73
2024/01/15 10:49:18;;;;;;;;;;;;;;;21.51;19.98;96986.09;4959167;28;1086;-74
2024/01/15 10:51:44;;;;;;;;;;;;;;;21.39;19.81;96979.28;4959475;29;1022;-73
2024/01/15 10:54:10;;;;;;;;;;;;;;;21.10;20.11;96968.34;4959409;29;1067;-73
2024/01/15 10:56:36;;;;;;;;;;;;;;;21.33;20.24;96964.97;4941815;29;1972;-73
2024/01/15 10:59:02;;;;;;;;;;;;;;;21.00;20.31;96963.91;4955372;29;998;-74
2024/01/15 11:01:28;;;;;;;;;;;;;;;20.83;20.78;96963.38;4939471;28;1018;-73
2024/01/15 11:03:54;;;;;;;;;;;;;;;20.91;20.49;96956.16;4947011;28;2242;-73
2024/01/15 11:06:19;;;;;;;;;;;;;;;21.19;20.15;96959.91;4978426;28;1397;-73
2024/01/15 11:08:49;;;;;;;;;;;;;;;21.38;20.11;96952.25;4962138;28;1284;-73
2024/01/15 11:11:15;;;;;;;;;;;;;;;21.14;20.14;96946.38;4962167;28;1283;-73
2024/01/15 11:13:42;;;;;;;;;;;;;;;21.41;19.73;96942.03;4978096;28;965;-73
2024/01/15 11:16:08;;;;;;;;;;;;;;;21.39;19.96;96950.19;4998659;28;1020;-74
2024/01/15 11:18:37;;;;;;;;;;;;;;;21.56;19.62;96943.00;5020374;28;1040;-73
2024/01/15 11:21:17;;;;;;;;;;;;;;;21.35;19.92;96946.72;5020814;28;987;-74
2024/01/15 11:23:46;;;;;;;;;;;;;;;21.62;19.80;96943.16;5020364;28;1096;-74
2024/01/15 11:26:30;;;;;;;;;;;;;;;21.65;19.71;96934.50;5036986;28;1056;-73
2024/01/15 11:28:56;;;;;;;;;;;;;;;21.71;19.48;96924.16;5020227;28;1699;-73
2024/01/15 11:31:36;;;;;;;;;;;;;;;21.63;19.57;96924.91;5036744;28;995;-73
2024/01/15 11:34:02;;;;;;;;;;;;;;;21.56;19.53;96917.53;5016561;28;1047;-73
2024/01/15 11:36:46;;;;;;;;;;;;;;;21.01;20.46;96920.22;5016693;28;1898;-74
2024/01/15 11:39:27;;;;;;;;;;;;;;;20.91;20.52;96918.63;5016588;28;1141;-73
2024/01/15 11:42:05;;;;;;;;;;;;;;;20.80;20.36;96883.09;5016881;28;1197;-73
2024/01/15 11:44:31;;;;;;;;;;;;;;;21.41;20.04;96908.09;5000368;28;1111;-73
2024/01/15 11:47:00;;;;;;;;;;;;;;;21.61;19.80;96902.75;4999415;28;970;-73
2024/01/15 11:49:37;;;;;;;;;;;;;;;21.26;20.10;96907.88;4996759;28;1079;-73
2024/01/15 11:52:03;;;;;;;;;;;;;;;21.24;20.01;96908.34;4997275;28;1181;-73
2024/01/15 11:54:28;;;;;;;;;;;;;;;21.64;19.90;96910.28;4996876;28;1121;-73
2024/01/15 11:56:54;;;;;;;;;;;;;;;21.30;19.90;96915.00;4997160;28;1960;-73
2024/01/15 11:59:20;;;;;;;;;;;;;;;21.39;20.00;96904.94;5001486;28;982;-73
2024/01/15 12:01:45;;;;;;;;;;;;;;;21.65;19.78;96906.19;4977256;28;1416;-73
2024/01/15 12:04:11;;;;;;;;;;;;;;;21.75;19.70;96892.81;4963692;28;1024;-73
2024/01/15 12:06:37;;;;;;;;;;;;;;;21.03;20.63;96895.88;4996985;28;1040;-74
2024/01/15 12:09:06;;;;;;;;;;;;;;;20.94;20.53;96892.25;4964324;28;1171;-73
2024/01/15 12:11:32;;;;;;;;;;;;;;;21.47;19.90;96883.56;4964342;28;1027;-73
2024/01/15 12:13:59;;;;;;;;;;;;;;;21.37;19.92;96887.63;4964491;28;879;-73
2024/01/15 12:16:25;;;;;;;;;;;;;;;21.12;20.27;96880.97;4980416;28;1899;-73
2024/01/15 12:18:50;;;;;;;;;;;;;;;21.27;20.31;96873.44;4980540;28;923;-73
2024/01/15 12:21:16;;;;;;;;;;;;;;;21.29;20.40;96867.31;4996615;28;966;-73
2024/01/15 12:23:41;;;;;;;;;;;;;;;21.56;20.01;96875.06;5016225;28;1100;-73
2024/01/15 12:26:07;;;;;;;;;;;;;;;21.43;20.26;96865.94;5015822;28;1286;-73
2024/01/15 12:28:32;;;;;;;;;;;;;;;21.67;19.87;96869.72;4999643;28;1017;-73
2024/01/15 12:31:00;;;;;;;;;;;;;;;21.59;19.85;96863.56;4999753;28;989;-73
2024/01/15 12:33:25;;;;;;;;;;;;;;;21.51;19.90;96861.56;4957401;29;1147;-73
2024/01/15 12:35:53;;;;;;;;;;;;;;;21.80;19.77;96849.72;4957354;29;1151;-73
2024/01/15 12:38:20;;;;;;;;;;;;;;;21.30;20.32;96858.41;4975149;28;2062;-73
2024/01/15 12:40:49;;;;;;;;;;;;;;;20.99;20.77;96850.00;5015931;28;923;-73
2024/01/15 12:43:14;;;;;;;;;;;;;;;20.94;20.79;96847.00;4976665;28;1014;-72
2024/01/15 12:45:40;;;;;;;;;;;;;;;21.01;20.62;96841.03;4976614;28;1161;-73
2024/01/15 12:48:06;;;;;;;;;;;;;;;20.97;20.77;96834.75;4960495;28;1191;-73
2024/01/15 12:50:33;;;;;;;;;;;;;;;21.50;19.97;96837.31;4960678;28;1643;-73
2024/01/15 12:52:59;;;;;;;;;;;;;;;21.23;20.41;96841.69;4936765;29;1795;-73
2024/01/15 12:55:25;;;;;;;;;;;;;;;21.70;19.92;96840.44;4937876;29;1205;-73